sensor_id;sensor_type;location;lat;lon;timestamp;pressure;altitude;pressure_sealevel;temperature;humidity
46768;BME280;69007;48.978;18.066;2023-07-24T00:01:48;97224.22;;;22.46;100.00
46768;BME280;69007;48.978;18.066;2023-07-24T00:04:13;97212.22;;;22.42;100.00
46768;BME280;69007;48.978;18.066;2023-07-24T00:06:38;97201.38;;;22.37;100.00
46768;BME280;69007;48.978;18.066;2023-07-24T00:09:04;97202.66;;;22.39;100.00
46768;BME280;69007;48.978;18.066;2023-07-24T00:11:29;97210.72;;;22.44;100.00
46768;BME280;69007;48.978;18.066;2023-07-24T00:13:55;97209.91;;;22.44;100.00
46768;BME280;69007;48.978;18.066;2023-07-24T00:16:20;97203.19;;;22.45;100.00
46768;BME280;69007;48.978;18.066;2023-07-24T00:18:46;97186.13;;;22.43;100.00
46768;BME280;69007;48.978;18.066;2023-07-24T00:21:11;97186.38;;;22.38;100.00
46768;BME280;69007;48.978;18.066;2023-07-24T00:23:38;97194.59;;;22.34;100.00
46768;BME280;69007;48.978;18.066;2023-07-24T00:26:03;97197.03;;;22.36;100.00
46768;BME280;69007;48.978;18.066;2023-07-24T00:28:29;97201.38;;;22.37;100.00
46768;BME280;69007;48.978;18.066;2023-07-24T00:30:54;97188.13;;;22.30;100.00
46768;BME280;69007;48.978;18.066;2023-07-24T00:33:21;97177.72;;;22.27;100.00
46768;BME280;69007;48.978;18.066;2023-07-24T00:35:47;97184.09;;;22.27;100.00
46768;BME280;69007;48.978;18.066;2023-07-24T00:38:12;97181.56;;;22.22;100.00
46768;BME280;69007;48.978;18.066;2023-07-24T00:40:37;97170.97;;;22.12;100.00
46768;BME280;69007;48.978;18.066;2023-07-24T00:43:03;97173.75;;;22.12;100.00
46768;BME280;69007;48.978;18.066;2023-07-24T00:45:28;97163.72;;;22.07;100.00
46768;BME280;69007;48.978;18.066;2023-07-24T00:47:54;97183.22;;;22.11;100.00
46768;BME280;69007;48.978;18.066;2023-07-24T00:50:19;97174.91;;;22.11;100.00
46768;BME280;69007;48.978;18.066;2023-07-24T00:52:45;97180.72;;;22.06;100.00
46768;BME280;69007;48.978;18.066;2023-07-24T00:55:13;97183.50;;;22.06;100.00
46768;BME280;69007;48.978;18.066;2023-07-24T00:57:39;97168.72;;;22.02;100.00
46768;BME280;69007;48.978;18.066;2023-07-24T01:00:06;97163.56;;;21.88;100.00
46768;BME280;69007;48.978;18.066;2023-07-24T01:02:32;97160.47;;;21.77;100.00
46768;BME280;69007;48.978;18.066;2023-07-24T01:04:58;97170.06;;;21.80;100.00
46768;BME280;69007;48.978;18.066;2023-07-24T01:07:23;97178.25;;;21.76;100.00
46768;BME280;69007;48.978;18.066;2023-07-24T01:09:49;97177.00;;;21.74;100.00
46768;BME280;69007;48.978;18.066;2023-07-24T01:17:30;97178.47;;;21.71;100.00
46768;BME280;69007;48.978;18.066;2023-07-24T01:20:02;97180.00;;;21.68;100.00
46768;BME280;69007;48.978;18.066;2023-07-24T01:27:31;97167.91;;;21.61;100.00
46768;BME280;69007;48.978;18.066;2023-07-24T01:29:56;97148.56;;;21.48;100.00
46768;BME280;69007;48.978;18.066;2023-07-24T01:32:22;97166.53;;;21.54;100.00
46768;BME280;69007;48.978;18.066;2023-07-24T01:34:48;97159.63;;;21.48;100.00
46768;BME280;69007;48.978;18.066;2023-07-24T01:37:14;97165.50;;;21.47;100.00
46768;BME280;69007;48.978;18.066;2023-07-24T01:39:44;97159.03;;;21.43;100.00
46768;BME280;69007;48.978;18.066;2023-07-24T01:42:11;97174.38;;;21.40;100.00
46768;BME280;69007;48.978;18.066;2023-07-24T01:44:36;97152.69;;;21.30;100.00
46768;BME280;69007;48.978;18.066;2023-07-24T01:47:02;97183.13;;;21.30;100.00
46768;BME280;69007;48.978;18.066;2023-07-24T01:49:27;97162.63;;;21.19;100.00
46768;BME280;69007;48.978;18.066;2023-07-24T01:51:53;97166.75;;;21.25;100.00
46768;BME280;69007;48.978;18.066;2023-07-24T01:54:18;97143.47;;;21.13;100.00
46768;BME280;69007;48.978;18.066;2023-07-24T01:56:43;97153.41;;;21.27;100.00
46768;BME280;69007;48.978;18.066;2023-07-24T01:59:09;97138.88;;;21.17;100.00
46768;BME280;69007;48.978;18.066;2023-07-24T02:01:34;97150.53;;;21.11;100.00
46768;BME280;69007;48.978;18.066;2023-07-24T02:03:59;97165.84;;;21.21;100.00
46768;BME280;69007;48.978;18.066;2023-07-24T02:06:25;97147.53;;;21.16;100.00
46768;BME280;69007;48.978;18.066;2023-07-24T02:08:51;97166.66;;;21.21;100.00
46768;BME280;69007;48.978;18.066;2023-07-24T02:11:17;97146.38;;;21.17;100.00
46768;BME280;69007;48.978;18.066;2023-07-24T02:13:46;97160.44;;;21.12;100.00
46768;BME280;69007;48.978;18.066;2023-07-24T02:16:12;97152.00;;;21.08;100.00
46768;BME280;69007;48.978;18.066;2023-07-24T02:18:41;97161.47;;;21.07;100.00
46768;BME280;69007;48.978;18.066;2023-07-24T02:21:07;97151.78;;;21.01;100.00
46768;BME280;69007;48.978;18.066;2023-07-24T02:23:32;97163.06;;;21.08;100.00
46768;BME280;69007;48.978;18.066;2023-07-24T02:25:58;97160.09;;;21.01;100.00
46768;BME280;69007;48.978;18.066;2023-07-24T02:28:23;97159.28;;;21.01;100.00
46768;BME280;69007;48.978;18.066;2023-07-24T02:30:49;97135.09;;;20.97;100.00
46768;BME280;69007;48.978;18.066;2023-07-24T02:33:16;97140.94;;;21.08;100.00
46768;BME280;69007;48.978;18.066;2023-07-24T02:35:42;97158.38;;;21.09;100.00
46768;BME280;69007;48.978;18.066;2023-07-24T02:38:07;97124.47;;;20.99;100.00
46768;BME280;69007;48.978;18.066;2023-07-24T02:40:33;97137.38;;;21.08;100.00
46768;BME280;69007;48.978;18.066;2023-07-24T02:42:59;97150.53;;;21.11;100.00
46768;BME280;69007;48.978;18.066;2023-07-24T02:45:24;97125.53;;;21.07;100.00
46768;BME280;69007;48.978;18.066;2023-07-24T02:47:50;97137.50;;;21.11;100.00
46768;BME280;69007;48.978;18.066;2023-07-24T02:50:15;97139.13;;;21.12;100.00
46768;BME280;69007;48.978;18.066;2023-07-24T02:52:40;97137.94;;;21.13;100.00
46768;BME280;69007;48.978;18.066;2023-07-24T02:55:06;97120.69;;;21.04;100.00
46768;BME280;69007;48.978;18.066;2023-07-24T02:57:31;97155.84;;;21.04;100.00
46768;BME280;69007;48.978;18.066;2023-07-24T02:59:57;97156.19;;;21.02;100.00
46768;BME280;69007;48.978;18.066;2023-07-24T03:02:22;97160.09;;;21.01;100.00
46768;BME280;69007;48.978;18.066;2023-07-24T03:04:47;97145.09;;;20.90;100.00
46768;BME280;69007;48.978;18.066;2023-07-24T03:07:13;97164.47;;;21.02;100.00
46768;BME280;69007;48.978;18.066;2023-07-24T03:09:38;97150.50;;;20.98;100.00
46768;BME280;69007;48.978;18.066;2023-07-24T03:12:04;97150.41;;;21.07;100.00
46768;BME280;69007;48.978;18.066;2023-07-24T03:14:29;97162.84;;;21.13;100.00
46768;BME280;69007;48.978;18.066;2023-07-24T03:16:54;97161.59;;;21.11;100.00
46768;BME280;69007;48.978;18.066;2023-07-24T03:19:20;97164.00;;;21.12;100.00
46768;BME280;69007;48.978;18.066;2023-07-24T03:21:45;97149.13;;;21.05;100.00
46768;BME280;69007;48.978;18.066;2023-07-24T03:24:11;97151.66;;;21.10;100.00
46768;BME280;69007;48.978;18.066;2023-07-24T03:26:36;97160.06;;;21.13;100.00
46768;BME280;69007;48.978;18.066;2023-07-24T03:29:01;97148.78;;;21.06;100.00
46768;BME280;69007;48.978;18.066;2023-07-24T03:31:27;97156.75;;;21.20;100.00
46768;BME280;69007;48.978;18.066;2023-07-24T03:33:52;97148.81;;;21.19;100.00
46768;BME280;69007;48.978;18.066;2023-07-24T03:36:18;97152.69;;;21.30;100.00
46768;BME280;69007;48.978;18.066;2023-07-24T03:38:43;97152.22;;;21.40;100.00
46768;BME280;69007;48.978;18.066;2023-07-24T03:41:08;97143.25;;;21.43;100.00
46768;BME280;69007;48.978;18.066;2023-07-24T03:43:33;97163.41;;;21.56;100.00
46768;BME280;69007;48.978;18.066;2023-07-24T03:45:59;97164.22;;;21.57;100.00
46768;BME280;69007;48.978;18.066;2023-07-24T03:48:24;97162.00;;;21.62;100.00
46768;BME280;69007;48.978;18.066;2023-07-24T03:50:53;97162.81;;;21.63;100.00
46768;BME280;69007;48.978;18.066;2023-07-24T03:53:22;97150.50;;;21.60;100.00
46768;BME280;69007;48.978;18.066;2023-07-24T03:55:47;97155.44;;;21.67;100.00
46768;BME280;69007;48.978;18.066;2023-07-24T03:58:12;97157.19;;;22.00;100.00
46768;BME280;69007;48.978;18.066;2023-07-24T04:00:38;97165.25;;;22.33;100.00
46768;BME280;69007;48.978;18.066;2023-07-24T04:03:03;97149.50;;;22.66;100.00
46768;BME280;69007;48.978;18.066;2023-07-24T04:05:29;97154.94;;;22.94;100.00
46768;BME280;69007;48.978;18.066;2023-07-24T04:07:54;97165.06;;;23.18;100.00
46768;BME280;69007;48.978;18.066;2023-07-24T04:10:20;97158.69;;;23.33;100.00
46768;BME280;69007;48.978;18.066;2023-07-24T04:12:45;97147.94;;;23.48;100.00
46768;BME280;69007;48.978;18.066;2023-07-24T04:15:11;97166.22;;;23.68;100.00
46768;BME280;69007;48.978;18.066;2023-07-24T04:17:36;97152.81;;;23.90;100.00
46768;BME280;69007;48.978;18.066;2023-07-24T04:20:04;97146.09;;;24.10;100.00
46768;BME280;69007;48.978;18.066;2023-07-24T04:22:30;97146.66;;;24.20;100.00
46768;BME280;69007;48.978;18.066;2023-07-24T04:24:55;97158.81;;;24.31;100.00
46768;BME280;69007;48.978;18.066;2023-07-24T04:27:20;97164.59;;;24.42;100.00
46768;BME280;69007;48.978;18.066;2023-07-24T04:29:46;97166.84;;;24.56;100.00
46768;BME280;69007;48.978;18.066;2023-07-24T04:32:11;97159.13;;;24.69;100.00
46768;BME280;69007;48.978;18.066;2023-07-24T04:34:36;97172.13;;;24.84;100.00
46768;BME280;69007;48.978;18.066;2023-07-24T04:37:02;97161.50;;;24.90;100.00
46768;BME280;69007;48.978;18.066;2023-07-24T04:39:28;97172.69;;;24.93;100.00
46768;BME280;69007;48.978;18.066;2023-07-24T04:41:53;97188.88;;;25.11;100.00
46768;BME280;69007;48.978;18.066;2023-07-24T04:44:18;97197.81;;;25.24;100.00
46768;BME280;69007;48.978;18.066;2023-07-24T04:46:44;97178.59;;;25.38;100.00
46768;BME280;69007;48.978;18.066;2023-07-24T04:49:09;97176.94;;;25.60;100.00
46768;BME280;69007;48.978;18.066;2023-07-24T04:51:34;97171.28;;;25.83;98.96
46768;BME280;69007;48.978;18.066;2023-07-24T04:54:00;97185.44;;;25.98;98.07
46768;BME280;69007;48.978;18.066;2023-07-24T04:56:25;97179.16;;;26.04;97.26
46768;BME280;69007;48.978;18.066;2023-07-24T04:58:50;97188.84;;;26.14;95.67
46768;BME280;69007;48.978;18.066;2023-07-24T05:01:16;97162.09;;;25.79;97.19
46768;BME280;69007;48.978;18.066;2023-07-24T05:03:41;97163.63;;;25.77;98.30
46768;BME280;69007;48.978;18.066;2023-07-24T05:06:06;97167.69;;;25.83;97.11
46768;BME280;69007;48.978;18.066;2023-07-24T05:08:32;97176.03;;;26.09;95.71
46768;BME280;69007;48.978;18.066;2023-07-24T05:10:57;97152.59;;;26.14;94.71
46768;BME280;69007;48.978;18.066;2023-07-24T05:13:24;97163.53;;;26.30;93.89
46768;BME280;69007;48.978;18.066;2023-07-24T05:15:49;97174.94;;;25.87;96.69
46768;BME280;69007;48.978;18.066;2023-07-24T05:18:14;97178.63;;;26.25;94.14
46768;BME280;69007;48.978;18.066;2023-07-24T05:20:47;97176.25;;;26.27;93.32
46768;BME280;69007;48.978;18.066;2023-07-24T05:23:13;97164.44;;;26.41;92.59
46768;BME280;69007;48.978;18.066;2023-07-24T05:25:39;97175.66;;;26.82;90.19
46768;BME280;69007;48.978;18.066;2023-07-24T05:28:04;97188.22;;;27.03;89.08
46768;BME280;69007;48.978;18.066;2023-07-24T05:30:29;97186.63;;;26.64;91.28
46768;BME280;69007;48.978;18.066;2023-07-24T05:32:55;97173.44;;;26.61;91.16
46768;BME280;69007;48.978;18.066;2023-07-24T05:35:20;97162.56;;;26.53;92.03
46768;BME280;69007;48.978;18.066;2023-07-24T05:37:46;97171.25;;;26.78;92.00
46768;BME280;69007;48.978;18.066;2023-07-24T05:40:11;97170.03;;;27.24;89.81
46768;BME280;69007;48.978;18.066;2023-07-24T05:42:36;97173.53;;;27.65;87.78
46768;BME280;69007;48.978;18.066;2023-07-24T05:45:07;97179.19;;;27.72;85.38
46768;BME280;69007;48.978;18.066;2023-07-24T05:47:33;97188.34;;;27.69;86.80
46768;BME280;69007;48.978;18.066;2023-07-24T05:49:58;97172.84;;;27.83;86.50
46768;BME280;69007;48.978;18.066;2023-07-24T05:52:24;97171.34;;;27.96;86.47
46768;BME280;69007;48.978;18.066;2023-07-24T05:54:49;97164.97;;;28.03;84.86
46768;BME280;69007;48.978;18.066;2023-07-24T05:57:14;97158.22;;;28.15;85.38
46768;BME280;69007;48.978;18.066;2023-07-24T05:59:40;97173.56;;;28.49;84.07
46768;BME280;69007;48.978;18.066;2023-07-24T06:02:05;97158.75;;;28.53;83.46
46768;BME280;69007;48.978;18.066;2023-07-24T06:04:31;97177.66;;;28.84;82.14
46768;BME280;69007;48.978;18.066;2023-07-24T06:06:58;97172.47;;;29.01;80.70
46768;BME280;69007;48.978;18.066;2023-07-24T06:09:23;97161.69;;;29.14;79.44
46768;BME280;69007;48.978;18.066;2023-07-24T06:11:48;97178.91;;;29.23;78.10
46768;BME280;69007;48.978;18.066;2023-07-24T06:14:14;97170.47;;;28.98;78.94
46768;BME280;69007;48.978;18.066;2023-07-24T06:16:39;97175.66;;;28.74;78.54
46768;BME280;69007;48.978;18.066;2023-07-24T06:19:05;97171.63;;;28.68;78.70
46768;BME280;69007;48.978;18.066;2023-07-24T06:21:30;97166.81;;;28.58;79.13
46768;BME280;69007;48.978;18.066;2023-07-24T06:23:56;97158.44;;;28.76;78.42
46768;BME280;69007;48.978;18.066;2023-07-24T06:26:21;97152.44;;;28.63;78.22
46768;BME280;69007;48.978;18.066;2023-07-24T06:28:47;97175.22;;;28.61;79.05
46768;BME280;69007;48.978;18.066;2023-07-24T06:31:12;97167.22;;;28.63;80.92
46768;BME280;69007;48.978;18.066;2023-07-24T06:33:38;97150.44;;;28.74;79.62
46768;BME280;69007;48.978;18.066;2023-07-24T06:36:03;97157.66;;;28.86;77.56
46768;BME280;69007;48.978;18.066;2023-07-24T06:38:29;97144.41;;;28.58;79.00
46768;BME280;69007;48.978;18.066;2023-07-24T06:40:54;97128.41;;;28.62;78.45
46768;BME280;69007;48.978;18.066;2023-07-24T06:43:19;97146.44;;;28.75;75.21
46768;BME280;69007;48.978;18.066;2023-07-24T06:45:45;97144.44;;;28.90;76.42
46768;BME280;69007;48.978;18.066;2023-07-24T06:48:10;97138.44;;;28.59;76.19
46768;BME280;69007;48.978;18.066;2023-07-24T06:50:36;97113.47;;;28.15;78.18
46768;BME280;69007;48.978;18.066;2023-07-24T06:53:01;97139.81;;;28.06;80.58
46768;BME280;69007;48.978;18.066;2023-07-24T06:55:26;97121.06;;;28.10;80.30
46768;BME280;69007;48.978;18.066;2023-07-24T06:57:52;97127.72;;;27.84;80.36
46768;BME280;69007;48.978;18.066;2023-07-24T07:00:17;97126.75;;;27.51;82.24
46768;BME280;69007;48.978;18.066;2023-07-24T07:02:42;97128.38;;;27.52;82.52
46768;BME280;69007;48.978;18.066;2023-07-24T07:05:08;97106.09;;;27.70;82.05
46768;BME280;69007;48.978;18.066;2023-07-24T07:07:33;97115.28;;;27.74;81.97
46768;BME280;69007;48.978;18.066;2023-07-24T07:09:59;97119.50;;;28.17;81.73
46768;BME280;69007;48.978;18.066;2023-07-24T07:12:24;97138.00;;;28.57;81.00
46768;BME280;69007;48.978;18.066;2023-07-24T07:14:49;97130.03;;;28.92;78.15
46768;BME280;69007;48.978;18.066;2023-07-24T07:17:15;97132.38;;;28.50;78.55
46768;BME280;69007;48.978;18.066;2023-07-24T07:19:40;97113.19;;;28.41;79.56
46768;BME280;69007;48.978;18.066;2023-07-24T07:22:06;97104.78;;;28.41;79.09
46768;BME280;69007;48.978;18.066;2023-07-24T07:24:31;97095.59;;;28.55;79.26
46768;BME280;69007;48.978;18.066;2023-07-24T07:26:57;97115.25;;;28.95;77.48
46768;BME280;69007;48.978;18.066;2023-07-24T07:29:22;97099.25;;;29.10;76.52
46768;BME280;69007;48.978;18.066;2023-07-24T07:31:47;97102.03;;;29.13;77.20
46768;BME280;69007;48.978;18.066;2023-07-24T07:34:13;97106.47;;;28.89;77.90
46768;BME280;69007;48.978;18.066;2023-07-24T07:36:38;97120.06;;;29.12;76.82
46768;BME280;69007;48.978;18.066;2023-07-24T07:39:03;97105.63;;;29.39;74.63
46768;BME280;69007;48.978;18.066;2023-07-24T07:41:29;97116.41;;;29.51;73.69
46768;BME280;69007;48.978;18.066;2023-07-24T07:43:55;97104.44;;;29.36;74.31
46768;BME280;69007;48.978;18.066;2023-07-24T07:46:20;97116.44;;;29.33;72.67
46768;BME280;69007;48.978;18.066;2023-07-24T07:48:45;97104.84;;;29.06;74.08
46768;BME280;69007;48.978;18.066;2023-07-24T07:51:14;97098.34;;;28.37;78.36
46768;BME280;69007;48.978;18.066;2023-07-24T07:53:40;97085.16;;;28.27;79.90
46768;BME280;69007;48.978;18.066;2023-07-24T07:56:05;97098.34;;;28.30;79.36
46768;BME280;69007;48.978;18.066;2023-07-24T07:58:31;97085.56;;;28.25;78.31
46768;BME280;69007;48.978;18.066;2023-07-24T08:00:56;97096.78;;;28.40;77.42
46768;BME280;69007;48.978;18.066;2023-07-24T08:03:22;97105.94;;;28.29;76.11
46768;BME280;69007;48.978;18.066;2023-07-24T08:05:47;97095.53;;;28.23;77.36
46768;BME280;69007;48.978;18.066;2023-07-24T08:08:13;97093.94;;;28.22;76.48
46768;BME280;69007;48.978;18.066;2023-07-24T08:10:39;97076.75;;;28.23;77.08
46768;BME280;69007;48.978;18.066;2023-07-24T08:13:05;97080.44;;;28.63;76.00
46768;BME280;69007;48.978;18.066;2023-07-24T08:15:35;97082.03;;;28.97;75.50
46768;BME280;69007;48.978;18.066;2023-07-24T08:18:02;97068.41;;;29.17;74.03
46768;BME280;69007;48.978;18.066;2023-07-24T08:20:27;97056.44;;;29.06;74.58
46768;BME280;69007;48.978;18.066;2023-07-24T08:22:52;97056.41;;;29.31;75.40
46768;BME280;69007;48.978;18.066;2023-07-24T08:25:18;97046.72;;;29.61;70.81
46768;BME280;69007;48.978;18.066;2023-07-24T08:27:43;97054.00;;;29.15;71.87
46768;BME280;69007;48.978;18.066;2023-07-24T08:30:09;97061.22;;;29.05;69.08
46768;BME280;69007;48.978;18.066;2023-07-24T08:32:34;97073.66;;;28.75;71.95
46768;BME280;69007;48.978;18.066;2023-07-24T08:34:59;97074.44;;;28.76;72.18
46768;BME280;69007;48.978;18.066;2023-07-24T08:37:25;97053.66;;;28.70;73.24
46768;BME280;69007;48.978;18.066;2023-07-24T08:39:50;97086.03;;;28.67;67.87
46768;BME280;69007;48.978;18.066;2023-07-24T08:42:16;97069.56;;;28.29;69.83
46768;BME280;69007;48.978;18.066;2023-07-24T08:44:41;97074.69;;;28.02;72.05
46768;BME280;69007;48.978;18.066;2023-07-24T08:47:10;97053.56;;;28.16;73.32
46768;BME280;69007;48.978;18.066;2023-07-24T08:49:38;97053.66;;;28.66;70.60
46768;BME280;69007;48.978;18.066;2023-07-24T08:52:09;97063.63;;;28.89;69.32
46768;BME280;69007;48.978;18.066;2023-07-24T08:54:36;97060.84;;;28.96;67.27
46768;BME280;69007;48.978;18.066;2023-07-24T08:57:08;97069.19;;;28.42;71.18
46768;BME280;69007;48.978;18.066;2023-07-24T08:59:34;97061.56;;;28.13;70.64
46768;BME280;69007;48.978;18.066;2023-07-24T09:02:00;97053.13;;;27.99;67.19
46768;BME280;69007;48.978;18.066;2023-07-24T09:04:25;97036.69;;;27.90;69.19
46768;BME280;69007;48.978;18.066;2023-07-24T09:06:51;97041.94;;;28.03;68.80
46768;BME280;69007;48.978;18.066;2023-07-24T09:09:17;97040.31;;;27.98;69.89
46768;BME280;69007;48.978;18.066;2023-07-24T09:11:46;97024.38;;;28.13;69.01
46768;BME280;69007;48.978;18.066;2023-07-24T09:14:20;97031.59;;;28.25;67.37
46768;BME280;69007;48.978;18.066;2023-07-24T09:16:46;97032.41;;;28.36;66.18
46768;BME280;69007;48.978;18.066;2023-07-24T09:19:18;97043.59;;;28.29;64.05
46768;BME280;69007;48.978;18.066;2023-07-24T09:21:44;97052.41;;;28.49;67.14
46768;BME280;69007;48.978;18.066;2023-07-24T09:24:14;97033.63;;;28.67;64.70
46768;BME280;69007;48.978;18.066;2023-07-24T09:26:52;97026.06;;;28.68;64.40
46768;BME280;69007;48.978;18.066;2023-07-24T09:29:18;97020.06;;;28.70;62.69
46768;BME280;69007;48.978;18.066;2023-07-24T09:31:44;97009.25;;;28.43;64.60
46768;BME280;69007;48.978;18.066;2023-07-24T09:34:17;97014.84;;;28.75;66.27
46768;BME280;69007;48.978;18.066;2023-07-24T09:36:43;97012.06;;;28.82;62.85
46768;BME280;69007;48.978;18.066;2023-07-24T09:39:09;96984.47;;;28.70;62.49
46768;BME280;69007;48.978;18.066;2023-07-24T09:41:38;96987.66;;;28.83;62.65
46768;BME280;69007;48.978;18.066;2023-07-24T09:44:03;96994.84;;;28.95;61.48
46768;BME280;69007;48.978;18.066;2023-07-24T09:46:29;96979.25;;;28.86;62.89
46768;BME280;69007;48.978;18.066;2023-07-24T09:48:57;96986.84;;;28.79;64.26
46768;BME280;69007;48.978;18.066;2023-07-24T09:51:22;96972.88;;;28.72;65.58
46768;BME280;69007;48.978;18.066;2023-07-24T09:53:55;96974.84;;;28.67;63.93
46768;BME280;69007;48.978;18.066;2023-07-24T09:56:23;96962.03;;;28.88;64.35
46768;BME280;69007;48.978;18.066;2023-07-24T09:58:50;96955.59;;;28.98;61.94
46768;BME280;69007;48.978;18.066;2023-07-24T10:01:20;96965.22;;;29.01;61.63
46768;BME280;69007;48.978;18.066;2023-07-24T10:03:49;96953.94;;;29.15;59.25
46768;BME280;69007;48.978;18.066;2023-07-24T10:06:16;96939.47;;;29.38;59.84
46768;BME280;69007;48.978;18.066;2023-07-24T10:08:43;96946.66;;;29.47;57.14
46768;BME280;69007;48.978;18.066;2023-07-24T10:11:13;96943.09;;;29.39;56.82
46768;BME280;69007;48.978;18.066;2023-07-24T10:13:39;96929.94;;;29.21;55.83
46768;BME280;69007;48.978;18.066;2023-07-24T10:16:06;96926.44;;;28.96;56.37
46768;BME280;69007;48.978;18.066;2023-07-24T10:18:41;96937.22;;;28.97;57.32
46768;BME280;69007;48.978;18.066;2023-07-24T10:21:09;96937.22;;;28.94;56.61
46768;BME280;69007;48.978;18.066;2023-07-24T10:23:36;96934.03;;;28.92;57.59
46768;BME280;69007;48.978;18.066;2023-07-24T10:26:07;96918.84;;;28.85;58.04
46768;BME280;69007;48.978;18.066;2023-07-24T10:28:34;96932.84;;;28.93;58.80
46768;BME280;69007;48.978;18.066;2023-07-24T10:31:03;96910.47;;;28.67;57.43
46768;BME280;69007;48.978;18.066;2023-07-24T10:33:35;96922.81;;;28.92;57.00
46768;BME280;69007;48.978;18.066;2023-07-24T10:36:07;96928.44;;;28.92;57.13
46768;BME280;69007;48.978;18.066;2023-07-24T10:38:41;96908.03;;;28.95;58.22
46768;BME280;69007;48.978;18.066;2023-07-24T10:41:09;96906.00;;;28.99;58.23
46768;BME280;69007;48.978;18.066;2023-07-24T10:43:46;96917.28;;;28.74;57.96
46768;BME280;69007;48.978;18.066;2023-07-24T10:46:12;96893.63;;;28.85;59.87
46768;BME280;69007;48.978;18.066;2023-07-24T10:48:39;96882.84;;;28.88;59.43
46768;BME280;69007;48.978;18.066;2023-07-24T10:51:08;96887.59;;;29.01;60.53
46768;BME280;69007;48.978;18.066;2023-07-24T10:53:36;96881.19;;;29.01;60.38
46768;BME280;69007;48.978;18.066;2023-07-24T10:56:03;96880.44;;;28.86;61.55
46768;BME280;69007;48.978;18.066;2023-07-24T10:58:29;96879.63;;;28.85;61.75
46768;BME280;69007;48.978;18.066;2023-07-24T11:00:55;96872.41;;;28.95;62.29
46768;BME280;69007;48.978;18.066;2023-07-24T11:03:21;96876.38;;;29.01;60.66
46768;BME280;69007;48.978;18.066;2023-07-24T11:05:47;96862.84;;;28.89;61.18
46768;BME280;69007;48.978;18.066;2023-07-24T11:08:14;96866.06;;;28.80;60.43
46768;BME280;69007;48.978;18.066;2023-07-24T11:13:16;96855.69;;;28.70;62.13
46768;BME280;69007;48.978;18.066;2023-07-24T11:15:41;96855.31;;;28.61;61.86
46768;BME280;69007;48.978;18.066;2023-07-24T11:18:07;96849.31;;;28.55;62.69
46768;BME280;69007;48.978;18.066;2023-07-24T11:23:09;96844.88;;;28.72;63.24
46768;BME280;69007;48.978;18.066;2023-07-24T11:25:35;96850.03;;;28.92;62.52
46768;BME280;69007;48.978;18.066;2023-07-24T11:28:00;96829.91;;;29.18;61.61
46768;BME280;69007;48.978;18.066;2023-07-24T11:30:27;96819.41;;;29.33;60.80
46768;BME280;69007;48.978;18.066;2023-07-24T11:32:53;96810.75;;;29.69;61.33
46768;BME280;69007;48.978;18.066;2023-07-24T11:35:19;96815.88;;;29.85;60.75
46768;BME280;69007;48.978;18.066;2023-07-24T11:37:46;96809.06;;;29.86;59.58
46768;BME280;69007;48.978;18.066;2023-07-24T11:40:12;96781.13;;;29.72;59.96
46768;BME280;69007;48.978;18.066;2023-07-24T11:42:43;96803.16;;;29.70;60.31
46768;BME280;69007;48.978;18.066;2023-07-24T11:45:09;96777.22;;;29.58;61.06
46768;BME280;69007;48.978;18.066;2023-07-24T11:47:48;96772.31;;;29.70;60.31
46768;BME280;69007;48.978;18.066;2023-07-24T11:50:15;96772.78;;;29.61;61.12
46768;BME280;69007;48.978;18.066;2023-07-24T11:52:42;96783.88;;;29.79;60.80
46768;BME280;69007;48.978;18.066;2023-07-24T11:55:12;96771.03;;;29.85;60.42
46768;BME280;69007;48.978;18.066;2023-07-24T11:57:38;96757.06;;;29.74;61.08
46768;BME280;69007;48.978;18.066;2023-07-24T12:00:05;96772.59;;;29.90;60.46
46768;BME280;69007;48.978;18.066;2023-07-24T12:02:34;96778.88;;;30.01;60.02
46768;BME280;69007;48.978;18.066;2023-07-24T12:04:59;96756.47;;;29.98;57.15
46768;BME280;69007;48.978;18.066;2023-07-24T12:07:32;96755.69;;;29.97;56.83
46768;BME280;69007;48.978;18.066;2023-07-24T12:10:02;96754.94;;;29.93;56.62
46768;BME280;69007;48.978;18.066;2023-07-24T12:13:00;96756.56;;;29.90;55.70
46768;BME280;69007;48.978;18.066;2023-07-24T12:15:25;96749.50;;;29.68;57.26
46768;BME280;69007;48.978;18.066;2023-07-24T12:17:52;96732.34;;;29.62;57.19
46768;BME280;69007;48.978;18.066;2023-07-24T12:20:17;96751.84;;;29.73;56.32
46768;BME280;69007;48.978;18.066;2023-07-24T12:22:43;96737.94;;;29.62;56.30
46768;BME280;69007;48.978;18.066;2023-07-24T12:25:08;96723.97;;;29.58;57.09
46768;BME280;69007;48.978;18.066;2023-07-24T12:27:34;96731.16;;;29.59;57.12
46768;BME280;69007;48.978;18.066;2023-07-24T12:29:59;96719.94;;;29.59;58.23
46768;BME280;69007;48.978;18.066;2023-07-24T12:32:25;96715.16;;;29.56;57.20
46768;BME280;69007;48.978;18.066;2023-07-24T12:34:51;96715.53;;;29.62;57.02
46768;BME280;69007;48.978;18.066;2023-07-24T12:37:17;96715.00;;;29.74;57.40
46768;BME280;69007;48.978;18.066;2023-07-24T12:39:44;96704.13;;;29.84;57.62
46768;BME280;69007;48.978;18.066;2023-07-24T12:42:10;96712.09;;;29.89;57.43
46768;BME280;69007;48.978;18.066;2023-07-24T12:44:36;96699.25;;;29.91;58.25
46768;BME280;69007;48.978;18.066;2023-07-24T12:47:01;96688.38;;;29.97;57.45
46768;BME280;69007;48.978;18.066;2023-07-24T12:49:27;96701.09;;;30.05;55.27
46768;BME280;69007;48.978;18.066;2023-07-24T12:51:52;96706.50;;;30.23;56.32
46768;BME280;69007;48.978;18.066;2023-07-24T12:54:17;96712.59;;;30.18;55.14
46768;BME280;69007;48.978;18.066;2023-07-24T12:56:45;96697.72;;;30.21;54.61